createdAt,value
2018-04-22T00:01:36.675Z,18.10
2018-04-22T00:04:03.906Z,18.57
2018-04-22T00:06:30.381Z,17.67
2018-04-22T00:08:56.810Z,17.47
2018-04-22T00:11:24.030Z,17.60
2018-04-22T00:13:50.446Z,16.60
2018-04-22T00:16:16.890Z,20.33
2018-04-22T00:18:43.334Z,17.60
2018-04-22T00:21:09.786Z,18.60
2018-04-22T00:23:36.985Z,17.63
2018-04-22T00:26:03.513Z,16.77
2018-04-22T00:28:29.928Z,18.43
2018-04-22T00:30:56.377Z,19.60
2018-04-22T00:33:22.814Z,18.03
2018-04-22T00:35:49.227Z,16.80
2018-04-22T00:38:15.694Z,21.70
2018-04-22T00:40:42.152Z,17.70
2018-04-22T00:43:08.635Z,19.60
2018-04-22T00:45:35.087Z,18.87
2018-04-22T00:48:01.559Z,19.23
2018-04-22T00:50:28.001Z,22.23
2018-04-22T00:52:55.209Z,21.73
2018-04-22T00:55:21.642Z,17.27
2018-04-22T00:57:48.052Z,19.43
2018-04-22T01:00:14.509Z,20.90
2018-04-22T01:02:40.958Z,19.93
2018-04-22T01:05:07.450Z,25.23
2018-04-22T01:07:34.605Z,20.60
2018-04-22T01:10:01.796Z,22.13
2018-04-22T01:12:28.213Z,18.33
2018-04-22T01:14:54.690Z,20.13
2018-04-22T01:17:21.110Z,23.33
2018-04-22T01:19:47.570Z,24.07
2018-04-22T01:22:14.008Z,22.27
2018-04-22T01:24:41.220Z,22.27
2018-04-22T01:27:07.712Z,18.13
2018-04-22T01:29:34.169Z,22.23
2018-04-22T01:32:00.606Z,21.00
2018-04-22T01:34:27.083Z,26.13
2018-04-22T01:36:53.512Z,18.07
2018-04-22T01:39:19.957Z,22.53
2018-04-22T01:41:46.457Z,28.37
2018-04-22T01:44:12.889Z,23.83
2018-04-22T01:46:39.309Z,26.23
2018-04-22T01:49:05.759Z,22.90
2018-04-22T01:51:32.225Z,23.63
2018-04-22T01:53:58.651Z,21.23
2018-04-22T01:56:25.105Z,24.77
2018-04-22T01:58:52.284Z,19.70
2018-04-22T02:01:18.745Z,19.60
2018-04-22T02:03:45.174Z,20.57
2018-04-22T02:06:11.635Z,24.70
2018-04-22T02:08:38.118Z,22.97
2018-04-22T02:11:04.565Z,21.43
2018-04-22T02:13:31.087Z,26.53
2018-04-22T02:15:57.551Z,21.77
2018-04-22T02:18:24.064Z,17.97
2018-04-22T02:20:50.566Z,24.60
2018-04-22T02:23:17.062Z,17.90
2018-04-22T02:25:43.592Z,21.37
2018-04-22T02:28:10.083Z,24.60
2018-04-22T02:30:36.599Z,21.33
2018-04-22T02:33:03.847Z,24.40
2018-04-22T02:35:30.365Z,23.33
2018-04-22T02:37:56.860Z,18.23
2018-04-22T02:40:23.378Z,19.33
2018-04-22T02:42:50.648Z,25.37
2018-04-22T02:45:17.153Z,21.57
2018-04-22T02:47:43.675Z,24.53
2018-04-22T02:50:10.185Z,21.40
2018-04-22T02:52:36.666Z,25.50
2018-04-22T02:55:03.239Z,24.07
2018-04-22T02:57:29.938Z,23.93
2018-04-22T02:59:57.197Z,23.90
2018-04-22T03:02:23.698Z,24.97
2018-04-22T03:04:50.178Z,26.43
2018-04-22T03:07:16.671Z,26.47
2018-04-22T03:09:44.372Z,25.33
2018-04-22T03:12:10.857Z,23.87
2018-04-22T03:14:37.344Z,22.07
2018-04-22T03:17:03.829Z,23.03
2018-04-22T03:19:30.329Z,25.37
2018-04-22T03:21:56.855Z,24.77
2018-04-22T03:24:23.365Z,24.27
2018-04-22T03:26:50.621Z,26.17
2018-04-22T03:29:17.109Z,25.23
2018-04-22T03:31:44.551Z,24.17
2018-04-22T03:34:11.043Z,20.83
2018-04-22T03:36:37.543Z,22.33
2018-04-22T03:39:04.155Z,22.43
2018-04-22T03:41:30.636Z,24.27
2018-04-22T03:43:57.194Z,25.90
2018-04-22T03:46:24.434Z,21.47
2018-04-22T03:48:51.712Z,25.97
2018-04-22T03:51:18.201Z,25.90
2018-04-22T03:53:44.721Z,25.90
2018-04-22T03:56:11.223Z,26.10
2018-04-22T03:58:37.720Z,25.13
2018-04-22T04:01:06.467Z,20.47
2018-04-22T04:03:32.947Z,24.67
2018-04-22T04:05:59.432Z,26.00
2018-04-22T04:08:25.930Z,28.47
2018-04-22T04:10:53.177Z,26.47
2018-04-22T04:13:26.622Z,25.40
2018-04-22T04:15:53.102Z,25.13
2018-04-22T04:21:39.590Z,27.77
2018-04-22T04:24:27.132Z,23.70
2018-04-22T04:27:18.453Z,22.03
2018-04-22T04:29:45.033Z,28.23
2018-04-22T04:32:11.565Z,24.97
2018-04-22T04:34:38.078Z,25.37
2018-04-22T04:37:04.572Z,24.33
2018-04-22T04:39:31.126Z,26.93
2018-04-22T04:42:07.705Z,23.70
2018-04-22T04:44:39.808Z,28.53
2018-04-22T04:47:07.044Z,22.03
2018-04-22T04:49:34.268Z,25.87
2018-04-22T04:52:00.774Z,24.97
2018-04-22T04:54:27.301Z,28.63
2018-04-22T04:56:53.846Z,34.83
2018-04-22T04:59:20.363Z,29.07
2018-04-22T05:01:46.882Z,26.63
2018-04-22T05:04:14.137Z,30.63
2018-04-22T05:06:40.635Z,27.53
2018-04-22T05:09:07.154Z,27.17
2018-04-22T05:11:33.648Z,33.57
2018-04-22T05:14:00.883Z,31.20
2018-04-22T05:16:27.390Z,28.03
2018-04-22T05:18:53.900Z,29.70
2018-04-22T05:21:20.405Z,30.70
2018-04-22T05:23:47.662Z,28.73
2018-04-22T05:26:14.902Z,28.30
2018-04-22T05:28:42.159Z,27.50
2018-04-22T05:31:09.401Z,28.40
2018-04-22T05:33:35.887Z,24.93
2018-04-22T05:36:02.387Z,27.77
2018-04-22T05:38:28.873Z,28.17
2018-04-22T05:40:55.626Z,33.53
2018-04-22T05:43:22.117Z,32.10
2018-04-22T05:45:48.631Z,29.57
2018-04-22T05:48:16.027Z,32.63
2018-04-22T05:50:42.525Z,27.03
2018-04-22T05:53:09.747Z,26.53
2018-04-22T05:55:36.206Z,24.43
2018-04-22T05:58:03.425Z,27.23
2018-04-22T06:00:29.913Z,23.77
2018-04-22T06:03:12.335Z,26.40
2018-04-22T06:05:38.865Z,26.80
2018-04-22T06:08:05.345Z,31.07
2018-04-22T06:10:31.837Z,30.70
2018-04-22T06:12:58.292Z,32.20
2018-04-22T06:15:24.726Z,31.43
2018-04-22T06:17:51.140Z,32.37
2018-04-22T06:20:17.560Z,32.47
2018-04-22T06:22:43.963Z,30.57
2018-04-22T06:25:10.391Z,37.70
2018-04-22T06:27:36.824Z,43.27
2018-04-22T06:30:03.290Z,40.40
2018-04-22T06:32:29.694Z,38.13
2018-04-22T06:34:56.122Z,37.27
2018-04-22T06:37:22.539Z,41.40
2018-04-22T06:39:48.957Z,43.37
2018-04-22T06:42:15.364Z,45.13
2018-04-22T06:44:41.782Z,39.40
2018-04-22T06:47:08.941Z,41.70
2018-04-22T06:49:35.358Z,40.13
2018-04-22T06:52:02.525Z,43.50
2018-04-22T06:54:28.945Z,46.97
2018-04-22T06:56:55.357Z,44.33
2018-04-22T06:59:22.524Z,48.03
2018-04-22T07:01:48.928Z,51.83
2018-04-22T07:04:15.350Z,46.20
2018-04-22T07:06:41.777Z,49.67
2018-04-22T07:09:08.202Z,53.37
2018-04-22T07:11:34.632Z,51.83
2018-04-22T07:14:01.074Z,49.47
2018-04-22T07:16:27.495Z,49.67
2018-04-22T07:18:53.898Z,52.47
2018-04-22T07:21:21.077Z,49.53
2018-04-22T07:23:47.486Z,48.73
2018-04-22T07:26:13.917Z,48.43
2018-04-22T07:28:41.101Z,49.17
2018-04-22T07:31:07.527Z,47.97
2018-04-22T07:33:33.938Z,45.07
2018-04-22T07:36:00.344Z,50.33
2018-04-22T07:38:27.524Z,48.27
2018-04-22T07:40:54.684Z,46.63
2018-04-22T07:43:21.107Z,47.77
2018-04-22T07:45:48.283Z,48.23
2018-04-22T07:48:14.687Z,48.47
2018-04-22T07:50:41.108Z,51.73
2018-04-22T07:53:08.360Z,55.27
2018-04-22T07:55:35.562Z,64.27
2018-04-22T07:58:02.048Z,101.60
2018-04-22T08:00:29.206Z,121.93
2018-04-22T08:02:55.640Z,114.90
2018-04-22T08:05:22.070Z,207.20
2018-04-22T08:07:49.259Z,266.87
2018-04-22T08:10:16.731Z,272.50
2018-04-22T08:12:42.170Z,265.40
2018-04-22T08:15:08.705Z,189.33
2018-04-22T08:17:35.176Z,180.27
2018-04-22T08:20:01.648Z,160.20
2018-04-22T08:22:28.113Z,179.40
2018-04-22T08:24:56.047Z,95.83
2018-04-22T08:27:22.501Z,125.33
2018-04-22T08:29:48.973Z,111.00
2018-04-22T08:32:16.186Z,150.57
2018-04-22T08:34:42.709Z,113.47
2018-04-22T08:37:09.174Z,104.13
2018-04-22T08:39:35.666Z,118.20
2018-04-22T08:42:02.100Z,95.90
2018-04-22T08:44:28.579Z,95.23
2018-04-22T08:49:49.207Z,84.63
2018-04-22T08:52:16.398Z,69.63
2018-04-22T08:54:42.874Z,84.77
2018-04-22T08:57:09.346Z,70.87
2018-04-22T08:59:35.802Z,72.57
2018-04-22T09:02:02.280Z,63.63
2018-04-22T09:04:28.675Z,50.30
2018-04-22T09:06:55.092Z,59.67
2018-04-22T09:09:21.579Z,57.63
2018-04-22T09:11:48.021Z,50.70
2018-04-22T09:14:15.223Z,47.70
2018-04-22T09:16:41.669Z,47.43
2018-04-22T09:19:08.107Z,43.23
2018-04-22T09:21:34.579Z,40.57
2018-04-22T09:24:01.851Z,40.87
2018-04-22T09:26:28.319Z,37.87
2018-04-22T09:28:54.762Z,36.63
2018-04-22T09:31:21.196Z,34.57
2018-04-22T09:33:47.621Z,29.20
2018-04-22T09:36:14.046Z,29.00
2018-04-22T09:38:40.464Z,30.87
2018-04-22T09:41:06.900Z,26.70
2018-04-22T09:43:33.323Z,26.87
2018-04-22T09:46:00.551Z,27.00
2018-04-22T09:48:26.944Z,25.93
2018-04-22T09:50:53.367Z,25.70
2018-04-22T09:53:19.806Z,25.40
2018-04-22T09:55:46.251Z,21.97
2018-04-22T09:58:12.680Z,20.13
2018-04-22T10:00:39.140Z,19.13
2018-04-22T10:03:06.458Z,18.57
2018-04-22T10:05:39.032Z,18.00
2018-04-22T10:08:05.469Z,17.90
2018-04-22T10:10:31.890Z,18.90
2018-04-22T10:12:58.328Z,15.27
2018-04-22T10:15:24.758Z,15.47
2018-04-22T10:17:51.186Z,14.33
2018-04-22T10:20:17.602Z,14.90
2018-04-22T10:22:44.782Z,14.40
2018-04-22T10:25:11.206Z,13.33
2018-04-22T10:27:37.655Z,11.60
2018-04-22T10:30:04.101Z,11.40
2018-04-22T10:32:30.531Z,13.80
2018-04-22T10:34:56.969Z,12.07
2018-04-22T10:37:23.432Z,11.63
2018-04-22T10:39:49.855Z,11.67
2018-04-22T10:42:16.287Z,10.13
2018-04-22T10:44:42.714Z,8.73
2018-04-22T10:47:09.158Z,8.60
2018-04-22T10:49:36.324Z,9.27
2018-04-22T10:52:02.761Z,12.07
2018-04-22T10:54:29.919Z,8.93
2018-04-22T10:56:57.122Z,10.17
2018-04-22T10:59:23.551Z,9.37
2018-04-22T11:01:49.957Z,8.70
2018-04-22T11:04:16.380Z,8.70
2018-04-22T11:06:43.578Z,6.47
2018-04-22T11:09:09.995Z,7.23
2018-04-22T11:11:36.401Z,6.80
2018-04-22T11:14:02.857Z,4.33
2018-04-22T11:16:29.272Z,3.77
2018-04-22T11:18:55.714Z,4.70
2018-04-22T11:21:22.143Z,5.70
2018-04-22T11:23:48.590Z,4.43
2018-04-22T11:26:15.027Z,4.27
2018-04-22T11:28:41.461Z,6.30
2018-04-22T11:31:07.903Z,5.37
2018-04-22T11:33:34.322Z,3.07
2018-04-22T11:36:00.770Z,6.57
2018-04-22T11:38:27.204Z,5.20
2018-04-22T11:40:53.607Z,3.67
2018-04-22T11:43:20.030Z,3.93
2018-04-22T11:45:47.212Z,5.70
2018-04-22T11:48:13.640Z,4.03
2018-04-22T11:50:40.063Z,3.50
2018-04-22T11:53:06.496Z,3.27
2018-04-22T11:55:32.932Z,4.07
2018-04-22T11:57:59.358Z,4.97
2018-04-22T12:00:25.855Z,5.13
2018-04-22T12:02:52.243Z,4.43
2018-04-22T12:05:18.696Z,6.90
2018-04-22T12:07:45.139Z,3.93
2018-04-22T12:10:11.568Z,5.03
2018-04-22T12:12:38.014Z,4.70
2018-04-22T12:15:04.475Z,3.50
2018-04-22T12:17:31.659Z,5.80
2018-04-22T12:19:58.092Z,3.60
2018-04-22T12:22:24.507Z,3.53
2018-04-22T12:24:50.946Z,4.67
2018-04-22T12:27:17.369Z,3.77
2018-04-22T12:29:44.524Z,5.40
2018-04-22T12:32:11.684Z,3.03
2018-04-22T12:34:38.100Z,3.70
2018-04-22T12:37:04.529Z,4.97
2018-04-22T12:39:30.952Z,3.70
2018-04-22T12:41:57.374Z,4.80
2018-04-22T12:44:23.793Z,5.37
2018-04-22T12:46:50.212Z,6.73
2018-04-22T12:49:16.651Z,5.03
2018-04-22T12:51:43.077Z,5.43
2018-04-22T12:54:09.502Z,4.83
2018-04-22T12:56:35.933Z,4.43
2018-04-22T12:59:02.339Z,3.30
2018-04-22T13:01:29.484Z,5.30
2018-04-22T13:03:56.644Z,4.93
2018-04-22T13:06:23.820Z,4.77
2018-04-22T13:08:50.255Z,204.47
2018-04-22T13:11:16.717Z,98.87
2018-04-22T13:13:43.142Z,10.53
2018-04-22T13:16:09.559Z,5.00
2018-04-22T13:18:35.994Z,8.53
2018-04-22T13:21:02.437Z,7.77
2018-04-22T13:23:28.862Z,5.83
2018-04-22T13:25:55.285Z,8.37
2018-04-22T13:30:45.726Z,4.20
2018-04-22T13:33:12.133Z,5.63
2018-04-22T13:35:38.560Z,6.67
2018-04-22T13:38:04.993Z,4.90
2018-04-22T13:40:31.413Z,4.53
2018-04-22T13:42:57.831Z,7.47
2018-04-22T13:45:24.982Z,5.70
2018-04-22T13:47:52.145Z,6.90
2018-04-22T13:50:19.297Z,11.50
2018-04-22T13:52:46.457Z,6.27
2018-04-22T13:55:12.889Z,5.33
2018-04-22T13:57:39.319Z,5.47
2018-04-22T14:00:05.750Z,4.77
2018-04-22T14:02:32.205Z,10.37
2018-04-22T14:04:58.627Z,6.57
2018-04-22T14:07:25.066Z,6.63
2018-04-22T14:09:51.504Z,5.20
2018-04-22T14:12:17.914Z,8.63
2018-04-22T14:14:44.330Z,7.60
2018-04-22T14:17:11.512Z,11.20
2018-04-22T14:19:37.917Z,5.17
2018-04-22T14:22:05.103Z,7.60
2018-04-22T14:24:31.514Z,6.63
2018-04-22T14:26:57.961Z,5.47
2018-04-22T14:29:24.382Z,8.63
2018-04-22T14:31:50.831Z,4.63
2018-04-22T14:34:17.253Z,5.37
2018-04-22T14:36:43.669Z,7.70
2018-04-22T14:39:10.108Z,5.37
2018-04-22T14:41:36.542Z,6.63
2018-04-22T14:44:16.036Z,5.87
2018-04-22T14:46:42.448Z,8.30
2018-04-22T14:49:08.886Z,6.37
2018-04-22T14:51:35.305Z,6.10
2018-04-22T14:54:01.724Z,5.17
2018-04-22T14:56:28.155Z,5.17
2018-04-22T14:58:54.572Z,8.20
2018-04-22T15:01:21.763Z,7.37
2018-04-22T15:03:48.199Z,8.33
2018-04-22T15:06:14.627Z,5.17
2018-04-22T15:08:41.040Z,7.43
2018-04-22T15:11:08.215Z,7.27
2018-04-22T15:13:34.649Z,10.03
2018-04-22T15:16:01.093Z,8.50
2018-04-22T15:18:27.519Z,6.67
2018-04-22T15:20:53.957Z,6.63
2018-04-22T15:23:20.369Z,6.50
2018-04-22T15:25:46.773Z,6.07
2018-04-22T15:28:13.211Z,5.00
2018-04-22T15:30:40.390Z,7.23
2018-04-22T15:33:06.802Z,10.57
2018-04-22T15:35:33.211Z,10.20
2018-04-22T15:37:59.653Z,8.27
2018-04-22T15:40:26.071Z,8.03
2018-04-22T15:42:52.493Z,8.57
2018-04-22T15:45:18.911Z,11.13
2018-04-22T15:47:45.443Z,11.50
2018-04-22T15:50:11.851Z,9.00
2018-04-22T15:52:38.283Z,8.60
2018-04-22T15:55:04.737Z,7.67
2018-04-22T15:57:31.169Z,9.83
2018-04-22T15:59:57.611Z,8.50
2018-04-22T16:02:24.026Z,7.73
2018-04-22T16:04:50.438Z,8.90
2018-04-22T16:07:17.619Z,9.10
2018-04-22T16:09:44.051Z,10.60
2018-04-22T16:12:10.476Z,9.53
2018-04-22T16:14:36.956Z,8.37
2018-04-22T16:17:03.378Z,8.47
2018-04-22T16:19:29.833Z,5.40
2018-04-22T16:21:56.232Z,6.70
2018-04-22T16:24:22.663Z,7.47
2018-04-22T16:26:49.091Z,8.83
2018-04-22T16:29:15.526Z,8.67
2018-04-22T16:31:41.939Z,7.20
2018-04-22T16:34:08.362Z,6.53
2018-04-22T16:36:35.517Z,5.90
2018-04-22T16:39:02.037Z,8.57
2018-04-22T16:41:29.471Z,8.07
2018-04-22T16:43:56.687Z,7.27
2018-04-22T16:46:23.127Z,7.27
2018-04-22T16:48:49.530Z,8.13
2018-04-22T16:51:15.948Z,8.83
2018-04-22T16:53:42.373Z,9.07
2018-04-22T16:56:08.791Z,6.93
2018-04-22T16:58:35.212Z,6.60
2018-04-22T17:01:01.646Z,9.83
2018-04-22T17:03:28.087Z,6.50
2018-04-22T17:05:54.571Z,6.97
2018-04-22T17:08:20.962Z,8.40
2018-04-22T17:10:47.379Z,6.73
2018-04-22T17:13:13.811Z,8.10
2018-04-22T17:15:40.246Z,6.27
2018-04-22T17:18:06.663Z,7.77
2018-04-22T17:20:33.084Z,8.93
2018-04-22T17:22:59.517Z,8.33
2018-04-22T17:25:25.925Z,7.30
2018-04-22T17:27:53.106Z,7.53
2018-04-22T17:30:19.562Z,8.07
2018-04-22T17:32:45.982Z,8.63
2018-04-22T17:35:12.409Z,8.07
2018-04-22T17:37:38.835Z,10.77
2018-04-22T17:40:05.266Z,7.70
2018-04-22T17:42:31.714Z,7.37
2018-04-22T17:44:58.149Z,9.17
2018-04-22T17:47:24.582Z,8.00
2018-04-22T17:49:51.020Z,8.17
2018-04-22T17:52:17.483Z,7.80
2018-04-22T17:54:43.904Z,10.13
2018-04-22T17:57:10.332Z,9.77
2018-04-22T17:59:36.812Z,12.50
2018-04-22T18:02:04.003Z,8.50
2018-04-22T18:04:30.425Z,8.00
2018-04-22T18:06:56.857Z,9.57
2018-04-22T18:09:23.289Z,8.53
2018-04-22T18:11:49.704Z,11.87
2018-04-22T18:14:16.873Z,13.53
2018-04-22T18:16:43.332Z,9.23
2018-04-22T18:19:09.771Z,10.13
2018-04-22T18:21:36.191Z,9.13
2018-04-22T18:24:02.629Z,11.70
2018-04-22T18:26:29.060Z,10.17
2018-04-22T18:28:55.488Z,8.33
2018-04-22T18:31:21.916Z,10.00
2018-04-22T18:33:48.396Z,8.27
2018-04-22T18:36:14.862Z,11.07
2018-04-22T18:38:41.259Z,10.90
2018-04-22T18:41:09.173Z,12.47
2018-04-22T18:43:35.596Z,11.90
2018-04-22T18:46:02.769Z,6.23
2018-04-22T18:48:29.192Z,8.43
2018-04-22T18:50:55.615Z,9.87
2018-04-22T18:53:22.032Z,12.67
2018-04-22T18:55:49.174Z,10.30
2018-04-22T18:58:15.607Z,9.03
2018-04-22T19:00:42.030Z,8.20
2018-04-22T19:03:08.449Z,13.17
2018-04-22T19:05:34.881Z,9.87
2018-04-22T19:08:01.318Z,11.33
2018-04-22T19:10:27.746Z,8.80
2018-04-22T19:12:54.159Z,12.40
2018-04-22T19:15:20.572Z,12.90
2018-04-22T19:17:46.990Z,10.93
2018-04-22T19:20:13.425Z,13.47
2018-04-22T19:22:40.598Z,14.00
2018-04-22T19:25:07.053Z,13.20
2018-04-22T19:27:33.481Z,9.23
2018-04-22T19:29:59.944Z,9.13
2018-04-22T19:32:26.379Z,10.13
2018-04-22T19:34:52.862Z,13.77
2018-04-22T19:37:19.238Z,11.43
2018-04-22T19:39:45.666Z,10.47
2018-04-22T19:42:12.157Z,12.40
2018-04-22T19:44:38.583Z,13.83
2018-04-22T19:47:05.073Z,14.43
2018-04-22T19:49:31.570Z,15.70
2018-04-22T19:51:58.008Z,15.33
2018-04-22T19:54:24.475Z,15.33
2018-04-22T19:56:50.953Z,18.37
2018-04-22T19:59:17.393Z,18.83
2018-04-22T20:01:43.847Z,15.97
2018-04-22T20:04:10.257Z,14.80
2018-04-22T20:06:36.742Z,16.03
2018-04-22T20:09:03.253Z,14.83
2018-04-22T20:11:29.734Z,14.77
2018-04-22T20:13:56.935Z,15.17
2018-04-22T20:16:23.367Z,15.60
2018-04-22T20:18:49.783Z,10.23
2018-04-22T20:21:16.211Z,13.43
2018-04-22T20:23:42.670Z,15.23
2018-04-22T20:26:09.106Z,15.10
2018-04-22T20:28:35.531Z,15.57
2018-04-22T20:31:01.957Z,12.83
2018-04-22T20:33:28.375Z,14.17
2018-04-22T20:35:54.827Z,15.07
2018-04-22T20:38:21.273Z,17.77
2018-04-22T20:40:47.701Z,12.43
2018-04-22T20:43:14.180Z,10.70
2018-04-22T20:45:40.650Z,17.60
2018-04-22T20:48:07.097Z,14.07
2018-04-22T20:50:33.562Z,12.77
2018-04-22T20:52:59.986Z,12.97
2018-04-22T20:55:26.437Z,14.83
2018-04-22T20:57:52.851Z,14.80
2018-04-22T21:00:19.302Z,12.07
2018-04-22T21:02:45.796Z,13.70
2018-04-22T21:05:12.274Z,12.33
2018-04-22T21:07:38.717Z,12.17
2018-04-22T21:10:05.223Z,13.87
2018-04-22T21:12:31.700Z,12.83
2018-04-22T21:14:58.153Z,12.03
2018-04-22T21:17:24.569Z,12.10
2018-04-22T21:19:51.016Z,18.00
2018-04-22T21:22:17.465Z,11.83
2018-04-22T21:24:43.912Z,17.70
2018-04-22T21:27:10.432Z,18.07
2018-04-22T21:29:37.630Z,16.80
2018-04-22T21:32:04.042Z,23.63
2018-04-22T21:34:31.518Z,17.33
2018-04-22T21:36:57.937Z,14.90
2018-04-22T21:39:24.364Z,12.73
2018-04-22T21:41:50.807Z,23.13
2018-04-22T21:44:17.228Z,24.53
2018-04-22T21:46:43.642Z,27.50
2018-04-22T21:49:10.816Z,38.97
2018-04-22T21:51:37.226Z,30.30
2018-04-22T21:54:03.669Z,42.00
2018-04-22T21:56:30.120Z,38.20
2018-04-22T21:58:56.600Z,24.90
2018-04-22T22:01:23.022Z,27.67
2018-04-22T22:03:49.450Z,30.23
2018-04-22T22:06:15.908Z,35.00
2018-04-22T22:08:42.326Z,23.00
2018-04-22T22:11:08.781Z,20.27
2018-04-22T22:13:35.222Z,28.60
2018-04-22T22:16:02.423Z,32.80
2018-04-22T22:18:28.875Z,24.47
2018-04-22T22:20:55.310Z,23.87
2018-04-22T22:23:21.772Z,30.63
2018-04-22T22:25:48.230Z,43.93
2018-04-22T22:28:14.662Z,40.00
2018-04-22T22:30:41.077Z,27.00
2018-04-22T22:33:07.542Z,31.03
2018-04-22T22:35:33.960Z,34.07
2018-04-22T22:38:00.407Z,31.90
2018-04-22T22:40:26.854Z,26.77
2018-04-22T22:42:53.274Z,26.70
2018-04-22T22:45:19.766Z,26.37
2018-04-22T22:47:47.689Z,22.43
2018-04-22T22:50:14.122Z,26.57
2018-04-22T22:52:40.552Z,26.40
2018-04-22T22:55:06.965Z,27.20
2018-04-22T22:57:33.412Z,21.77
2018-04-22T22:59:59.843Z,22.83
2018-04-22T23:02:26.281Z,22.70
2018-04-22T23:04:52.708Z,19.37
2018-04-22T23:07:19.164Z,21.80
2018-04-22T23:09:45.600Z,25.83
2018-04-22T23:12:12.020Z,22.43
2018-04-22T23:14:38.449Z,26.03
2018-04-22T23:17:04.858Z,23.43
2018-04-22T23:19:32.114Z,19.30
2018-04-22T23:21:58.534Z,23.30
2018-04-22T23:24:25.694Z,22.17
2018-04-22T23:26:52.856Z,23.63
2018-04-22T23:29:19.284Z,20.60
2018-04-22T23:31:45.719Z,20.03
2018-04-22T23:34:12.157Z,27.90
2018-04-22T23:36:38.616Z,25.00
2018-04-22T23:39:05.100Z,24.00
2018-04-22T23:41:31.560Z,23.37
2018-04-22T23:43:57.966Z,25.97
2018-04-22T23:46:24.370Z,22.47
2018-04-22T23:48:50.803Z,24.40
2018-04-22T23:51:17.221Z,25.63
2018-04-22T23:53:43.639Z,22.67
2018-04-22T23:56:10.057Z,19.03
2018-04-22T23:58:36.465Z,19.97
